createdAt,value
2019-01-21T00:01:32.247Z,48.37
2019-01-21T00:04:02.286Z,50.87
2019-01-21T00:06:33.730Z,49.20
2019-01-21T00:09:05.155Z,52.43
2019-01-21T00:11:35.077Z,54.13
2019-01-21T00:14:05.689Z,54.50
2019-01-21T00:16:35.772Z,53.63
2019-01-21T00:19:05.698Z,52.00
2019-01-21T00:21:35.722Z,51.67
2019-01-21T00:24:05.978Z,47.70
2019-01-21T00:26:36.009Z,53.20
2019-01-21T00:29:06.196Z,53.63
2019-01-21T00:31:36.222Z,54.00
2019-01-21T00:34:06.134Z,51.60
2019-01-21T00:36:36.081Z,52.33
2019-01-21T00:39:07.737Z,50.60
2019-01-21T00:41:37.771Z,49.80
2019-01-21T00:44:07.712Z,53.70
2019-01-21T00:46:37.752Z,52.60
2019-01-21T00:49:07.653Z,52.77
2019-01-21T00:51:37.681Z,52.47
2019-01-21T00:54:07.652Z,55.13
2019-01-21T00:56:37.609Z,52.43
2019-01-21T00:59:07.645Z,51.90
2019-01-21T01:01:37.633Z,52.50
2019-01-21T01:04:07.667Z,52.50
2019-01-21T01:06:37.579Z,51.37
2019-01-21T01:09:08.544Z,55.23
2019-01-21T01:11:38.540Z,50.13
2019-01-21T01:14:08.567Z,52.50
2019-01-21T01:16:38.469Z,51.43
2019-01-21T01:19:08.409Z,51.83
2019-01-21T01:21:38.368Z,52.63
2019-01-21T01:24:08.276Z,52.60
2019-01-21T01:26:38.318Z,50.00
2019-01-21T01:29:08.253Z,53.40
2019-01-21T01:31:38.331Z,53.20
2019-01-21T01:34:08.301Z,47.47
2019-01-21T01:36:38.330Z,50.90
2019-01-21T01:39:08.616Z,49.63
2019-01-21T01:41:38.605Z,48.47
2019-01-21T01:44:08.667Z,50.63
2019-01-21T01:46:38.702Z,52.17
2019-01-21T01:49:08.785Z,47.83
2019-01-21T01:51:38.831Z,50.13
2019-01-21T01:54:08.853Z,51.90
2019-01-21T01:56:38.837Z,48.03
2019-01-21T01:59:08.915Z,47.80
2019-01-21T02:01:38.772Z,50.03
2019-01-21T02:04:08.796Z,50.10
2019-01-21T02:06:38.775Z,49.27
2019-01-21T02:09:09.008Z,54.77
2019-01-21T02:11:39.375Z,48.23
2019-01-21T02:14:09.374Z,52.23
2019-01-21T02:16:39.390Z,50.03
2019-01-21T02:19:09.421Z,50.20
2019-01-21T02:21:41.274Z,48.97
2019-01-21T02:24:14.072Z,46.93
2019-01-21T02:27:01.353Z,50.97
2019-01-21T02:30:05.121Z,53.63
2019-01-21T02:33:08.173Z,51.10
2019-01-21T02:36:05.484Z,48.00
2019-01-21T02:39:16.232Z,51.30
2019-01-21T02:42:04.912Z,49.80
2019-01-21T02:45:05.005Z,49.37
2019-01-21T02:48:00.251Z,46.00
2019-01-21T02:50:57.354Z,49.87
2019-01-21T02:53:50.781Z,53.17
2019-01-21T02:56:49.568Z,52.33
2019-01-21T02:59:36.029Z,53.60
2019-01-21T03:02:31.671Z,53.13
2019-01-21T03:21:53.599Z,53.83
2019-01-21T03:25:03.492Z,56.37
2019-01-21T03:28:11.709Z,55.53
2019-01-21T03:31:34.042Z,54.17
2019-01-21T03:34:39.237Z,60.27
2019-01-21T03:37:54.006Z,55.70
2019-01-21T03:40:55.754Z,54.30
2019-01-21T03:44:08.753Z,56.83
2019-01-21T03:47:12.534Z,55.30
2019-01-21T03:50:26.354Z,60.03
2019-01-21T03:53:17.012Z,59.83
2019-01-21T03:55:49.758Z,54.73
2019-01-21T03:59:03.672Z,58.37
2019-01-21T04:02:11.069Z,56.47
2019-01-21T04:05:21.526Z,57.50
2019-01-21T04:08:13.267Z,57.97
2019-01-21T04:11:09.914Z,62.10
2019-01-21T04:14:32.867Z,55.53
2019-01-21T04:18:14.293Z,59.00
2019-01-21T04:21:25.231Z,63.27
2019-01-21T04:24:29.381Z,56.63
2019-01-21T04:27:22.333Z,64.93
2019-01-21T04:30:09.782Z,59.00
2019-01-21T04:33:05.978Z,57.30
2019-01-21T04:36:10.019Z,56.87
2019-01-21T04:38:59.649Z,56.10
2019-01-21T04:41:46.215Z,64.73
2019-01-21T04:45:02.981Z,57.57
2019-01-21T04:48:19.693Z,57.20
2019-01-21T04:51:21.431Z,60.17
2019-01-21T04:54:26.936Z,59.90
2019-01-21T04:57:30.359Z,57.67
2019-01-21T05:00:27.087Z,57.50
2019-01-21T05:03:21.298Z,57.70
2019-01-21T05:06:22.607Z,56.27
2019-01-21T05:09:30.240Z,59.90
2019-01-21T05:12:23.884Z,57.70
2019-01-21T05:15:32.701Z,60.40
2019-01-21T05:18:31.526Z,62.47
2019-01-21T05:21:39.747Z,59.37
2019-01-21T05:24:43.037Z,63.20
2019-01-21T05:27:36.066Z,62.37
2019-01-21T05:31:02.428Z,59.47
2019-01-21T05:33:53.702Z,58.40
2019-01-21T05:36:55.029Z,59.97
2019-01-21T05:40:20.907Z,61.23
2019-01-21T05:43:40.189Z,55.40
2019-01-21T05:46:44.783Z,57.73
2019-01-21T05:49:35.852Z,59.67
2019-01-21T05:52:30.036Z,56.77
2019-01-21T05:55:23.350Z,55.17
2019-01-21T05:58:18.799Z,57.40
2019-01-21T06:01:30.344Z,56.93
2019-01-21T06:04:29.712Z,57.70
2019-01-21T06:07:49.208Z,61.43
2019-01-21T06:10:29.651Z,60.10
2019-01-21T06:13:23.269Z,55.00
2019-01-21T06:16:46.238Z,60.20
2019-01-21T06:19:25.894Z,60.50
2019-01-21T06:22:24.997Z,59.70
2019-01-21T06:25:38.864Z,60.83
2019-01-21T06:28:25.608Z,64.73
2019-01-21T06:31:38.774Z,62.17
2019-01-21T06:34:28.732Z,56.00
2019-01-21T06:37:28.870Z,60.23
2019-01-21T06:40:39.076Z,60.37
2019-01-21T06:44:11.480Z,61.37
2019-01-21T06:47:17.563Z,57.07
2019-01-21T06:50:08.536Z,60.63
2019-01-21T06:53:06.970Z,67.07
2019-01-21T06:56:10.044Z,64.80
2019-01-21T06:59:21.301Z,60.13
2019-01-21T07:05:35.313Z,60.10
2019-01-21T07:08:45.149Z,61.70
2019-01-21T07:12:05.033Z,61.87
2019-01-21T07:15:27.071Z,62.00
2019-01-21T07:18:17.003Z,56.70
2019-01-21T07:21:22.903Z,58.17
2019-01-21T07:24:28.856Z,59.07
2019-01-21T07:27:37.332Z,57.13
2019-01-21T07:30:23.799Z,58.80
2019-01-21T07:33:43.653Z,58.77
2019-01-21T07:36:34.585Z,58.47
2019-01-21T07:39:43.533Z,61.13
2019-01-21T07:42:45.594Z,59.57
2019-01-21T07:45:49.982Z,56.90
2019-01-21T07:49:00.686Z,60.77
2019-01-21T07:52:07.030Z,58.70
2019-01-21T07:55:21.290Z,61.40
2019-01-21T07:58:29.036Z,59.43
2019-01-21T08:01:19.357Z,61.50
2019-01-21T08:04:19.632Z,63.10
2019-01-21T08:07:27.382Z,58.50
2019-01-21T08:10:41.386Z,67.40
2019-01-21T08:13:42.098Z,61.70
2019-01-21T08:17:02.048Z,60.27
2019-01-21T08:20:25.375Z,59.90
2019-01-21T08:23:35.468Z,59.07
2019-01-21T08:26:58.707Z,60.10
2019-01-21T08:29:36.491Z,52.33
2019-01-21T08:32:41.617Z,61.23
2019-01-21T08:35:40.086Z,67.23
2019-01-21T08:38:48.903Z,59.20
2019-01-21T08:42:06.211Z,59.07
2019-01-21T08:45:08.178Z,61.20
2019-01-21T08:48:20.929Z,60.73
2019-01-21T08:51:37.992Z,63.97
2019-01-21T08:54:43.442Z,65.00
2019-01-21T08:57:33.811Z,61.40
2019-01-21T09:00:40.810Z,57.80
2019-01-21T09:04:08.645Z,58.53
2019-01-21T09:07:07.059Z,62.03
2019-01-21T09:09:51.834Z,69.10
2019-01-21T09:13:00.343Z,62.27
2019-01-21T09:15:53.263Z,57.67
2019-01-21T09:19:10.070Z,59.03
2019-01-21T09:21:52.278Z,59.07
2019-01-21T09:24:59.483Z,61.67
2019-01-21T09:28:06.610Z,63.23
2019-01-21T09:31:17.482Z,64.53
2019-01-21T09:34:15.411Z,65.63
2019-01-21T09:37:19.689Z,56.60
2019-01-21T09:40:33.631Z,62.73
2019-01-21T09:43:44.664Z,62.73
2019-01-21T09:46:43.935Z,60.37
2019-01-21T09:49:12.838Z,61.57
2019-01-21T09:51:46.518Z,55.90
2019-01-21T09:54:16.553Z,55.23
2019-01-21T09:56:48.424Z,58.43
2019-01-21T09:59:19.867Z,58.27
2019-01-21T10:01:52.865Z,62.23
2019-01-21T10:04:36.785Z,67.40
2019-01-21T10:07:19.706Z,65.23
2019-01-21T10:10:06.813Z,57.10
2019-01-21T10:13:20.218Z,60.10
2019-01-21T10:16:19.141Z,57.30
2019-01-21T10:19:14.884Z,56.93
2019-01-21T10:22:20.319Z,57.43
2019-01-21T10:25:27.108Z,60.17
2019-01-21T10:28:45.144Z,59.47
2019-01-21T10:31:59.431Z,56.53
2019-01-21T10:35:00.554Z,54.20
2019-01-21T10:38:01.767Z,59.97
2019-01-21T10:41:16.114Z,58.83
2019-01-21T10:44:29.396Z,56.13
2019-01-21T10:47:33.076Z,55.37
2019-01-21T10:50:36.102Z,58.63
2019-01-21T10:53:31.506Z,64.23
2019-01-21T10:56:25.546Z,55.77
2019-01-21T10:59:14.609Z,54.83
2019-01-21T11:02:22.816Z,56.97
2019-01-21T11:05:30.429Z,58.87
2019-01-21T11:08:39.715Z,60.27
2019-01-21T11:11:39.074Z,59.40
2019-01-21T11:14:50.953Z,58.67
2019-01-21T11:17:48.151Z,57.63
2019-01-21T11:20:44.771Z,58.63
2019-01-21T11:24:08.051Z,53.60
2019-01-21T11:27:16.496Z,61.67
2019-01-21T11:30:18.194Z,61.80
2019-01-21T11:33:26.437Z,51.97
2019-01-21T11:36:46.420Z,56.47
2019-01-21T11:39:56.437Z,54.13
2019-01-21T11:42:51.093Z,57.77
2019-01-21T11:45:59.258Z,58.17
2019-01-21T11:48:59.170Z,54.83
2019-01-21T11:52:17.545Z,56.70
2019-01-21T11:55:38.207Z,52.50
2019-01-21T11:58:28.247Z,54.93
2019-01-21T12:01:37.599Z,55.37
2019-01-21T12:04:29.143Z,51.90
2019-01-21T12:07:21.489Z,53.17
2019-01-21T12:10:35.671Z,52.37
2019-01-21T12:13:49.525Z,57.33
2019-01-21T12:17:02.469Z,53.70
2019-01-21T12:19:43.609Z,53.07
2019-01-21T12:22:56.658Z,54.07
2019-01-21T12:25:37.408Z,56.27
2019-01-21T12:28:40.196Z,57.80
2019-01-21T12:31:30.917Z,54.17
2019-01-21T12:34:21.242Z,56.63
2019-01-21T12:37:02.590Z,54.97
2019-01-21T12:40:20.514Z,59.50
2019-01-21T12:43:27.574Z,56.53
2019-01-21T12:46:24.971Z,54.67
2019-01-21T12:49:25.465Z,53.73
2019-01-21T12:52:07.509Z,55.10
2019-01-21T12:55:15.663Z,54.87
2019-01-21T12:58:20.421Z,55.03
2019-01-21T13:01:08.755Z,57.43
2019-01-21T13:04:15.874Z,57.27
2019-01-21T13:07:25.292Z,55.67
2019-01-21T13:10:40.149Z,56.43
2019-01-21T13:13:40.732Z,56.40
2019-01-21T13:16:46.536Z,56.37
2019-01-21T13:19:32.085Z,54.30
2019-01-21T13:22:26.969Z,56.47
2019-01-21T13:25:29.857Z,57.30
2019-01-21T13:28:32.689Z,58.67
2019-01-21T13:31:55.697Z,63.67
2019-01-21T13:35:04.938Z,60.50
2019-01-21T13:37:54.863Z,55.90
2019-01-21T13:40:51.969Z,57.30
2019-01-21T13:44:18.291Z,60.70
2019-01-21T13:47:06.440Z,54.90
2019-01-21T13:50:01.179Z,52.97
2019-01-21T13:53:16.423Z,56.67
2019-01-21T13:56:04.296Z,52.67
2019-01-21T13:59:16.711Z,54.23
2019-01-21T14:01:53.521Z,51.43
2019-01-21T14:04:50.497Z,53.13
2019-01-21T14:07:44.570Z,55.27
2019-01-21T14:10:45.515Z,52.27
2019-01-21T14:13:39.971Z,52.27
2019-01-21T14:17:06.163Z,48.93
2019-01-21T14:20:29.819Z,55.73
2019-01-21T14:23:29.203Z,48.80
2019-01-21T14:26:20.581Z,55.67
2019-01-21T14:29:30.716Z,55.10
2019-01-21T14:32:23.397Z,50.07
2019-01-21T14:35:05.000Z,49.43
2019-01-21T14:38:16.858Z,52.00
2019-01-21T14:41:25.029Z,52.40
2019-01-21T14:44:39.688Z,55.80
2019-01-21T14:47:41.233Z,55.50
2019-01-21T14:50:50.906Z,57.57
2019-01-21T14:53:44.532Z,48.27
2019-01-21T14:56:45.094Z,55.27
2019-01-21T14:59:32.720Z,55.40
2019-01-21T15:02:32.749Z,47.83
2019-01-21T15:05:26.762Z,50.03
2019-01-21T15:08:23.986Z,48.93
2019-01-21T15:11:40.836Z,51.17
2019-01-21T15:14:41.957Z,52.73
2019-01-21T15:17:47.187Z,52.77
2019-01-21T15:20:39.071Z,52.20
2019-01-21T15:23:41.054Z,54.30
2019-01-21T15:26:36.425Z,51.23
2019-01-21T15:29:52.210Z,55.97
2019-01-21T15:32:59.311Z,56.17
2019-01-21T15:35:44.589Z,56.50
2019-01-21T15:38:52.400Z,57.53
2019-01-21T15:41:53.705Z,54.20
2019-01-21T15:45:10.809Z,53.83
2019-01-21T15:48:18.787Z,51.87
2019-01-21T15:51:31.596Z,53.33
2019-01-21T15:54:36.994Z,58.83
2019-01-21T15:57:38.704Z,53.00
2019-01-21T16:00:49.913Z,52.10
2019-01-21T16:03:57.879Z,56.23
2019-01-21T16:06:54.788Z,56.40
2019-01-21T16:09:36.529Z,57.80
2019-01-21T16:13:09.090Z,55.43
2019-01-21T16:16:15.007Z,56.73
2019-01-21T16:18:58.841Z,51.77
2019-01-21T16:22:08.865Z,60.10
2019-01-21T16:24:50.386Z,49.30
2019-01-21T16:27:55.971Z,56.00
2019-01-21T16:30:32.102Z,56.70
2019-01-21T16:34:01.309Z,53.80
2019-01-21T16:37:15.691Z,56.50
2019-01-21T16:40:35.925Z,59.57
2019-01-21T16:43:05.922Z,59.17
2019-01-21T16:45:35.966Z,61.03
2019-01-21T16:48:06.161Z,59.80
2019-01-21T16:50:36.074Z,59.87
2019-01-21T16:53:06.157Z,54.83
2019-01-21T16:55:36.003Z,59.80
2019-01-21T16:58:06.354Z,61.03
2019-01-21T17:00:36.316Z,60.90
2019-01-21T17:03:06.266Z,62.70
2019-01-21T17:05:36.263Z,61.03
2019-01-21T17:08:06.424Z,57.67
2019-01-21T17:10:39.209Z,59.40
2019-01-21T17:13:08.214Z,59.23
2019-01-21T17:15:38.245Z,56.23
2019-01-21T17:18:08.203Z,64.37
2019-01-21T17:20:38.172Z,62.77
2019-01-21T17:23:08.236Z,62.23
2019-01-21T17:25:38.182Z,61.63
2019-01-21T17:28:08.218Z,61.70
2019-01-21T17:30:38.153Z,60.00
2019-01-21T17:33:08.129Z,63.63
2019-01-21T17:35:38.117Z,69.90
2019-01-21T17:38:08.168Z,62.00
2019-01-21T17:40:38.208Z,67.03
2019-01-21T17:43:08.197Z,65.43
2019-01-21T17:45:38.295Z,67.17
2019-01-21T17:48:08.330Z,66.23
2019-01-21T17:50:38.296Z,61.63
2019-01-21T17:53:09.841Z,63.93
2019-01-21T17:55:39.881Z,64.23
2019-01-21T17:58:09.919Z,64.63
2019-01-21T18:00:39.950Z,67.50
2019-01-21T18:03:09.914Z,67.10
2019-01-21T18:05:39.977Z,69.83
2019-01-21T18:08:13.284Z,66.67
2019-01-21T18:10:43.300Z,66.43
2019-01-21T18:13:13.343Z,64.30
2019-01-21T18:15:43.425Z,66.17
2019-01-21T18:18:13.509Z,62.73
2019-01-21T18:20:43.497Z,63.43
2019-01-21T18:23:13.481Z,74.47
2019-01-21T18:25:43.486Z,68.37
2019-01-21T18:28:13.505Z,68.73
2019-01-21T18:30:43.978Z,63.07
2019-01-21T18:33:14.093Z,63.13
2019-01-21T18:35:44.105Z,65.40
2019-01-21T18:38:14.026Z,66.13
2019-01-21T18:40:44.116Z,64.87
2019-01-21T18:43:14.109Z,64.27
2019-01-21T18:45:44.493Z,64.13
2019-01-21T18:48:14.551Z,68.00
2019-01-21T18:50:44.648Z,61.20
2019-01-21T18:53:14.745Z,66.77
2019-01-21T18:55:44.771Z,65.93
2019-01-21T18:58:14.696Z,65.63
2019-01-21T19:00:44.819Z,60.77
2019-01-21T19:03:14.725Z,63.30
2019-01-21T19:05:44.837Z,66.80
2019-01-21T19:08:14.870Z,63.77
2019-01-21T19:10:44.843Z,65.73
2019-01-21T19:13:14.857Z,63.70
2019-01-21T19:15:44.828Z,70.30
2019-01-21T19:18:14.782Z,63.83
2019-01-21T19:20:44.719Z,67.23
2019-01-21T19:23:14.870Z,64.63
2019-01-21T19:25:44.941Z,62.10
2019-01-21T19:28:14.948Z,66.90
2019-01-21T19:30:44.810Z,63.20
2019-01-21T19:33:14.759Z,63.33
2019-01-21T19:35:44.813Z,65.23
2019-01-21T19:38:16.000Z,68.60
2019-01-21T19:40:45.935Z,66.40
2019-01-21T19:43:15.984Z,60.90
2019-01-21T19:45:45.969Z,64.83
2019-01-21T19:48:15.935Z,63.00
2019-01-21T19:50:46.048Z,67.20
2019-01-21T19:53:15.996Z,64.93
2019-01-21T19:55:46.093Z,63.83
2019-01-21T19:58:16.154Z,66.03
2019-01-21T20:00:46.134Z,65.17
2019-01-21T20:03:16.128Z,64.03
2019-01-21T20:05:46.193Z,68.40
2019-01-21T20:08:16.264Z,67.07
2019-01-21T20:10:46.312Z,67.60
2019-01-21T20:13:16.364Z,61.80
2019-01-21T20:15:46.367Z,67.93
2019-01-21T20:18:16.429Z,64.30
2019-01-21T20:20:47.540Z,64.27
2019-01-21T20:23:17.529Z,65.03
2019-01-21T20:25:48.549Z,63.70
2019-01-21T20:28:18.736Z,61.37
2019-01-21T20:30:49.694Z,65.70
2019-01-21T20:33:19.791Z,63.87
2019-01-21T20:35:49.804Z,64.87
2019-01-21T20:38:19.899Z,65.50
2019-01-21T20:40:49.890Z,70.27
2019-01-21T20:43:19.826Z,68.37
2019-01-21T20:45:50.792Z,69.40
2019-01-21T20:48:20.859Z,71.23
2019-01-21T20:50:50.839Z,69.47
2019-01-21T20:53:20.902Z,68.23
2019-01-21T20:55:50.956Z,68.50
2019-01-21T20:58:20.806Z,69.87
2019-01-21T21:00:50.791Z,66.40
2019-01-21T21:03:20.903Z,65.33
2019-01-21T21:05:52.365Z,73.87
2019-01-21T21:08:22.530Z,68.37
2019-01-21T21:10:52.732Z,68.23
2019-01-21T21:13:22.896Z,70.30
2019-01-21T21:15:53.121Z,66.27
2019-01-21T21:18:23.265Z,64.67
2019-01-21T21:20:53.450Z,68.83
2019-01-21T21:23:23.552Z,72.70
2019-01-21T21:25:53.752Z,67.43
2019-01-21T21:28:23.878Z,66.53
2019-01-21T21:30:54.161Z,63.63
2019-01-21T21:33:24.294Z,68.43
2019-01-21T21:35:54.532Z,63.90
2019-01-21T21:38:24.659Z,66.60
2019-01-21T21:40:54.873Z,68.73
2019-01-21T21:43:27.497Z,66.50
2019-01-21T21:45:57.704Z,63.57
2019-01-21T21:48:31.731Z,69.37
2019-01-21T21:50:59.752Z,66.83
2019-01-21T21:53:29.924Z,68.80
2019-01-21T21:56:00.122Z,66.80
2019-01-21T21:58:30.259Z,68.67
2019-01-21T22:01:00.562Z,64.10
2019-01-21T22:03:30.761Z,69.67
2019-01-21T22:06:01.182Z,67.87
2019-01-21T22:08:31.418Z,68.07
2019-01-21T22:11:01.671Z,66.27
2019-01-21T22:13:31.847Z,72.27
2019-01-21T22:16:01.998Z,70.77
2019-01-21T22:18:32.402Z,68.20
2019-01-21T22:21:02.672Z,68.03
2019-01-21T22:23:32.854Z,69.30
2019-01-21T22:26:02.965Z,67.07
2019-01-21T22:28:32.841Z,68.10
2019-01-21T22:31:03.029Z,63.70
2019-01-21T22:33:32.912Z,92.03
2019-01-21T22:36:02.885Z,56.73
2019-01-21T22:38:33.033Z,62.53
2019-01-21T22:41:03.082Z,48.13
2019-01-21T22:43:33.020Z,44.47
2019-01-21T22:46:02.977Z,50.20
2019-01-21T22:48:33.008Z,49.77
2019-01-21T22:51:03.199Z,48.80
2019-01-21T22:53:33.105Z,56.10
2019-01-21T22:56:03.152Z,57.30
2019-01-21T22:58:33.009Z,56.70
2019-01-21T23:01:29.788Z,57.77
2019-01-21T23:03:59.758Z,66.37
2019-01-21T23:06:29.791Z,63.60
2019-01-21T23:08:59.763Z,65.00
2019-01-21T23:11:30.113Z,69.23
2019-01-21T23:14:00.207Z,69.80
2019-01-21T23:16:30.227Z,65.50
2019-01-21T23:19:00.395Z,63.80
2019-01-21T23:21:30.266Z,63.10
2019-01-21T23:24:00.210Z,62.70
2019-01-21T23:26:30.186Z,68.87
2019-01-21T23:29:00.226Z,73.77
2019-01-21T23:31:31.203Z,64.73
2019-01-21T23:34:01.125Z,75.20
2019-01-21T23:36:31.084Z,71.50
2019-01-21T23:39:01.484Z,72.63
2019-01-21T23:41:32.425Z,71.97
2019-01-21T23:44:02.438Z,74.17
2019-01-21T23:46:32.774Z,71.67
2019-01-21T23:49:05.660Z,70.97
2019-01-21T23:51:36.085Z,68.80
2019-01-21T23:54:07.003Z,67.63
2019-01-21T23:56:36.959Z,73.37
2019-01-21T23:59:07.021Z,69.40
